createdAt,value
2023-11-12T00:00:37.984Z,100805.94
2023-11-12T00:03:05.333Z,100801.81
2023-11-12T00:05:32.315Z,100784.13
2023-11-12T00:07:59.408Z,100784.50
2023-11-12T00:10:27.070Z,100778.94
2023-11-12T00:12:54.147Z,100774.22
2023-11-12T00:15:21.115Z,100776.69
2023-11-12T00:17:48.044Z,100774.44
2023-11-12T00:20:15.035Z,100760.41
2023-11-12T00:22:42.446Z,100760.19
2023-11-12T00:25:14.816Z,100756.28
2023-11-12T00:27:42.268Z,100752.78
2023-11-12T00:30:10.245Z,100744.75
2023-11-12T00:32:38.104Z,100746.00
2023-11-12T00:35:06.707Z,100734.03
2023-11-12T00:37:34.195Z,100724.75
2023-11-12T00:40:01.356Z,100722.03
2023-11-12T00:42:28.630Z,100712.78
2023-11-12T00:44:55.624Z,100718.97
2023-11-12T00:47:22.825Z,100706.16
2023-11-12T00:49:49.964Z,100702.25
2023-11-12T00:52:17.749Z,100709.28
2023-11-12T00:54:45.453Z,100721.44
2023-11-12T00:57:12.349Z,100718.13
2023-11-12T00:59:39.223Z,100718.94
2023-11-12T01:02:06.338Z,100715.25
2023-11-12T01:04:33.217Z,100716.88
2023-11-12T01:07:00.077Z,100720.59
2023-11-12T01:09:28.221Z,100711.94
2023-11-12T01:11:55.620Z,100709.03
2023-11-12T01:14:22.906Z,100712.31
2023-11-12T01:16:50.156Z,100710.06
2023-11-12T01:19:17.737Z,100715.22
2023-11-12T01:21:44.784Z,100709.25
2023-11-12T01:24:11.765Z,100710.28
2023-11-12T01:26:38.995Z,100713.34
2023-11-12T01:29:06.117Z,100717.69
2023-11-12T01:31:33.338Z,100726.56
2023-11-12T01:34:00.694Z,100716.88
2023-11-12T01:36:27.814Z,100719.94
2023-11-12T01:38:54.745Z,100724.47
2023-11-12T01:41:21.673Z,100725.72
2023-11-12T01:43:48.519Z,100732.53
2023-11-12T01:46:15.706Z,100730.06
2023-11-12T01:48:42.709Z,100733.34
2023-11-12T01:51:10.518Z,100730.44
2023-11-12T01:53:40.100Z,100731.06
2023-11-12T01:56:11.951Z,100745.09
2023-11-12T01:58:41.978Z,100735.84
2023-11-12T02:01:11.269Z,100736.66
2023-11-12T02:03:39.000Z,100739.97
2023-11-12T02:06:06.710Z,100741.78
2023-11-12T02:08:36.821Z,100750.25
2023-11-12T02:11:08.797Z,100756.03
2023-11-12T02:13:42.530Z,100749.25
2023-11-12T02:16:10.589Z,100747.38
2023-11-12T02:18:37.482Z,100751.28
2023-11-12T02:21:04.925Z,100744.72
2023-11-12T02:23:32.070Z,100743.66
2023-11-12T02:25:59.202Z,100749.03
2023-11-12T02:28:25.954Z,100749.84
2023-11-12T02:30:56.020Z,100748.19
2023-11-12T02:33:28.473Z,100740.97
2023-11-12T02:35:56.833Z,100736.66
2023-11-12T02:38:24.704Z,100735.19
2023-11-12T02:40:52.641Z,100741.22
2023-11-12T02:43:19.712Z,100740.16
2023-11-12T02:45:46.958Z,100748.81
2023-11-12T02:48:13.989Z,100741.81
2023-11-12T02:50:41.000Z,100738.09
2023-11-12T02:53:08.770Z,100732.75
2023-11-12T02:55:36.692Z,100738.91
2023-11-12T02:58:04.036Z,100733.97
2023-11-12T03:00:31.733Z,100733.97
2023-11-12T03:03:02.031Z,100735.00
2023-11-12T03:05:30.586Z,100726.94
2023-11-12T03:08:00.632Z,100729.22
2023-11-12T03:10:27.855Z,100724.69
2023-11-12T03:12:57.747Z,100723.84
2023-11-12T03:15:25.524Z,100727.16
2023-11-12T03:17:53.914Z,100722.59
2023-11-12T03:20:21.163Z,100718.06
2023-11-12T03:22:48.023Z,100716.00
2023-11-12T03:25:15.954Z,100713.31
2023-11-12T03:27:43.167Z,100730.44
2023-11-12T03:30:14.456Z,100719.72
2023-11-12T03:32:41.543Z,100718.69
2023-11-12T03:35:10.579Z,100724.03
2023-11-12T03:37:37.845Z,100723.81
2023-11-12T03:40:05.734Z,100724.03
2023-11-12T03:42:33.058Z,100712.28
2023-11-12T03:44:59.923Z,100718.03
2023-11-12T03:47:26.873Z,100717.00
2023-11-12T03:49:53.741Z,100719.03
2023-11-12T03:52:20.844Z,100709.53
2023-11-12T03:54:47.808Z,100698.19
2023-11-12T03:57:15.676Z,100708.03
2023-11-12T03:59:42.901Z,100692.94
2023-11-12T04:02:10.012Z,100689.81
2023-11-12T04:04:37.156Z,100683.63
2023-11-12T04:07:04.373Z,100681.94
2023-11-12T04:09:31.880Z,100687.91
2023-11-12T04:11:58.802Z,100676.97
2023-11-12T04:14:25.642Z,100669.94
2023-11-12T04:16:52.534Z,100666.00
2023-11-12T04:19:19.331Z,100684.56
2023-11-12T04:21:48.453Z,100694.50
2023-11-12T04:24:15.925Z,100689.53
2023-11-12T04:26:42.806Z,100694.09
2023-11-12T04:29:10.028Z,100694.09
2023-11-12T04:31:37.638Z,100715.16
2023-11-12T04:34:05.206Z,100713.69
2023-11-12T04:36:36.525Z,100710.78
2023-11-12T04:39:04.288Z,100716.59
2023-11-12T04:41:31.101Z,100729.56
2023-11-12T04:43:57.991Z,100744.84
2023-11-12T04:46:26.017Z,100755.59
2023-11-12T04:48:53.464Z,100765.28
2023-11-12T04:51:21.094Z,100780.53
2023-11-12T04:53:49.373Z,100787.59
2023-11-12T04:56:16.251Z,100797.91
2023-11-12T04:58:43.211Z,100802.00
2023-11-12T05:01:10.014Z,100809.03
2023-11-12T05:03:37.071Z,100806.34
2023-11-12T05:06:05.285Z,100809.44
2023-11-12T05:08:32.365Z,100799.06
2023-11-12T05:10:59.300Z,100803.41
2023-11-12T05:13:26.905Z,100802.97
2023-11-12T05:15:54.280Z,100797.81
2023-11-12T05:18:21.597Z,100804.22
2023-11-12T05:20:51.993Z,100815.19
2023-11-12T05:23:18.970Z,100811.69
2023-11-12T05:25:46.257Z,100820.16
2023-11-12T05:28:13.242Z,100826.97
2023-11-12T05:30:40.655Z,100822.84
2023-11-12T05:33:07.674Z,100820.31
2023-11-12T05:35:34.527Z,100817.25
2023-11-12T05:38:01.395Z,100838.06
2023-11-12T05:40:30.468Z,100838.06
2023-11-12T05:42:58.046Z,100842.00
2023-11-12T05:45:25.029Z,100832.09
2023-11-12T05:47:51.924Z,100839.09
2023-11-12T05:50:18.911Z,100842.41
2023-11-12T05:52:45.773Z,100846.91
2023-11-12T05:55:12.662Z,100852.09
2023-11-12T05:57:39.535Z,100868.81
2023-11-12T06:00:08.982Z,100877.09
2023-11-12T06:02:41.095Z,100878.13
2023-11-12T06:05:08.355Z,100880.00
2023-11-12T06:07:35.246Z,100889.06
2023-11-12T06:10:02.583Z,100897.53
2023-11-12T06:12:29.597Z,100890.50
2023-11-12T06:14:56.545Z,100890.28
2023-11-12T06:17:24.941Z,100888.63
2023-11-12T06:19:53.060Z,100889.47
2023-11-12T06:22:21.212Z,100892.16
2023-11-12T06:24:48.232Z,100906.63
2023-11-12T06:27:15.193Z,100915.69
2023-11-12T06:29:42.023Z,100914.25
2023-11-12T06:32:08.854Z,100917.38
2023-11-12T06:34:36.310Z,100921.72
2023-11-12T06:37:04.350Z,100925.84
2023-11-12T06:39:32.066Z,100944.25
2023-11-12T06:41:59.040Z,100948.78
2023-11-12T06:44:25.906Z,100952.69
2023-11-12T06:46:52.841Z,100951.03
2023-11-12T06:49:19.749Z,100954.34
2023-11-12T06:51:46.676Z,100945.88
2023-11-12T06:54:13.877Z,100957.84
2023-11-12T06:56:40.725Z,100954.78
2023-11-12T06:59:07.612Z,100953.13
2023-11-12T07:01:34.600Z,100961.16
2023-11-12T07:04:01.746Z,100971.09
2023-11-12T07:06:29.813Z,100971.09
2023-11-12T07:08:56.678Z,100982.84
2023-11-12T07:11:23.644Z,100985.31
2023-11-12T07:13:50.440Z,100994.41
2023-11-12T07:16:18.798Z,101005.53
2023-11-12T07:18:53.686Z,101024.31
2023-11-12T07:21:39.846Z,101025.53
2023-11-12T07:24:07.390Z,101029.88
2023-11-12T07:26:34.978Z,101029.03
2023-11-12T07:29:01.859Z,101028.03
2023-11-12T07:31:29.257Z,101041.44
2023-11-12T07:33:56.709Z,101043.50
2023-11-12T07:36:23.604Z,101059.78
2023-11-12T07:38:50.658Z,101068.91
2023-11-12T07:41:17.722Z,101070.31
2023-11-12T07:43:44.663Z,101077.34
2023-11-12T07:46:12.187Z,101067.25
2023-11-12T07:48:39.160Z,101062.69
2023-11-12T07:51:05.995Z,101063.31
2023-11-12T07:53:32.874Z,101060.63
2023-11-12T07:55:59.821Z,101069.91
2023-11-12T07:58:26.744Z,101074.66
2023-11-12T08:00:53.641Z,101083.75
2023-11-12T08:03:22.663Z,101094.06
2023-11-12T08:05:51.099Z,101089.53
2023-11-12T08:08:18.065Z,101076.72
2023-11-12T08:10:44.883Z,101073.22
2023-11-12T08:13:11.704Z,101083.13
2023-11-12T08:15:38.928Z,101095.50
2023-11-12T08:18:07.326Z,101102.09
2023-11-12T08:20:36.984Z,101098.41
2023-11-12T08:23:04.677Z,101106.44
2023-11-12T08:25:31.547Z,101120.47
2023-11-12T08:27:58.495Z,101138.47
2023-11-12T08:30:25.385Z,101134.13
2023-11-12T08:32:52.486Z,101124.63
2023-11-12T08:35:19.368Z,101140.09
2023-11-12T08:37:46.262Z,101122.97
2023-11-12T08:40:14.040Z,101114.69
2023-11-12T08:42:41.589Z,101135.53
2023-11-12T08:45:08.952Z,101142.91
2023-11-12T08:47:35.883Z,101138.13
2023-11-12T08:50:02.842Z,101128.38
2023-11-12T08:52:29.775Z,101124.81
2023-11-12T08:54:56.620Z,101128.50
2023-11-12T08:57:23.656Z,101124.50
2023-11-12T08:59:53.196Z,101129.59
2023-11-12T09:02:21.106Z,101140.66
2023-11-12T09:04:47.995Z,101135.13
2023-11-12T09:07:15.089Z,101142.28
2023-11-12T09:09:41.961Z,101150.06
2023-11-12T09:12:08.918Z,101167.19
2023-11-12T09:14:35.732Z,101174.09
2023-11-12T09:17:03.014Z,101184.38
2023-11-12T09:19:29.875Z,101193.16
2023-11-12T09:21:56.757Z,101203.44
2023-11-12T09:24:23.634Z,101199.25
2023-11-12T09:26:50.434Z,101204.25
2023-11-12T09:29:17.218Z,101206.09
2023-11-12T09:31:44.667Z,101209.56
2023-11-12T09:34:11.539Z,101204.25
2023-11-12T09:36:38.396Z,101198.16
2023-11-12T09:39:05.315Z,101189.84
2023-11-12T09:41:37.745Z,101192.91
2023-11-12T09:44:09.007Z,101189.91
2023-11-12T09:46:36.752Z,101198.59
2023-11-12T09:49:05.404Z,101198.28
2023-11-12T09:51:35.780Z,101224.94
2023-11-12T09:54:04.540Z,101219.31
2023-11-12T09:56:31.549Z,101212.56
2023-11-12T09:58:58.359Z,101219.09
2023-11-12T10:01:25.919Z,101213.75
2023-11-12T10:03:53.303Z,101206.84
2023-11-12T10:06:24.350Z,101182.22
2023-11-12T10:08:51.643Z,101192.41
2023-11-12T10:11:25.717Z,101181.38
2023-11-12T10:13:53.084Z,101181.03
2023-11-12T10:16:42.004Z,101195.53
2023-11-12T10:19:15.129Z,101202.00
2023-11-12T10:22:01.935Z,101201.69
2023-11-12T10:24:30.261Z,101200.41
2023-11-12T10:27:06.187Z,101213.81
2023-11-12T10:29:33.245Z,101205.34
2023-11-12T10:32:00.833Z,101206.31
2023-11-12T10:34:29.018Z,101199.03
2023-11-12T10:37:09.352Z,101195.50
2023-11-12T10:39:42.388Z,101198.06
2023-11-12T10:42:26.275Z,101198.88
2023-11-12T10:44:57.520Z,101195.63
2023-11-12T10:47:30.935Z,101189.03
2023-11-12T10:49:58.976Z,101200.31
2023-11-12T10:52:31.354Z,101204.66
2023-11-12T10:55:05.346Z,101213.94
2023-11-12T10:57:33.229Z,101220.16
2023-11-12T11:00:03.439Z,101220.16
2023-11-12T11:02:34.071Z,101213.91
2023-11-12T11:05:02.778Z,101220.47
2023-11-12T11:07:29.587Z,101221.50
2023-11-12T11:09:57.325Z,101216.66
2023-11-12T11:12:25.848Z,101217.50
2023-11-12T11:14:52.739Z,101221.69
2023-11-12T11:17:39.044Z,101216.09
2023-11-12T11:20:06.604Z,101209.78
2023-11-12T11:22:33.779Z,101206.19
2023-11-12T11:25:23.294Z,101217.59
2023-11-12T11:27:53.709Z,101213.25
2023-11-12T11:30:20.870Z,101215.94
2023-11-12T11:32:55.786Z,101217.00
2023-11-12T11:35:23.598Z,101213.34
2023-11-12T11:38:11.423Z,101212.72
2023-11-12T11:40:39.483Z,101205.56
2023-11-12T11:43:24.521Z,101203.69
2023-11-12T11:46:06.736Z,101190.31
2023-11-12T11:48:33.661Z,101200.03
2023-11-12T11:51:02.575Z,101193.00
2023-11-12T11:53:31.837Z,101191.44
2023-11-12T11:56:04.989Z,101192.69
2023-11-12T11:58:46.208Z,101195.63
2023-11-12T12:01:13.542Z,101197.47
2023-11-12T12:03:40.301Z,101192.06
2023-11-12T12:06:16.207Z,101192.88
2023-11-12T12:08:53.585Z,101190.72
2023-11-12T12:11:26.048Z,101192.47
2023-11-12T12:14:00.557Z,101201.53
2023-11-12T12:16:32.112Z,101191.28
2023-11-12T12:18:59.498Z,101193.28
2023-11-12T12:21:26.743Z,101191.06
2023-11-12T12:23:54.324Z,101200.91
2023-11-12T12:26:22.650Z,101208.81
2023-11-12T12:28:49.491Z,101212.56
2023-11-12T12:31:16.388Z,101219.28
2023-11-12T12:33:58.535Z,101229.38
2023-11-12T12:36:25.507Z,101233.03
2023-11-12T12:38:59.813Z,101232.44
2023-11-12T12:41:27.416Z,101242.56
2023-11-12T12:43:57.382Z,101229.31
2023-11-12T12:46:47.764Z,101234.78
2023-11-12T12:49:31.886Z,101243.03
2023-11-12T12:52:00.776Z,101237.09
2023-11-12T12:54:30.960Z,101245.94
2023-11-12T12:57:02.256Z,101230.16
2023-11-12T12:59:41.683Z,101241.09
2023-11-12T13:02:12.066Z,101235.84
2023-11-12T13:04:40.548Z,101235.31
2023-11-12T13:07:08.478Z,101238.56
2023-11-12T13:09:35.939Z,101232.47
2023-11-12T13:12:05.231Z,101237.09
2023-11-12T13:14:34.237Z,101233.50
2023-11-12T13:17:04.807Z,101233.69
2023-11-12T13:19:33.465Z,101237.41
2023-11-12T13:22:03.353Z,101232.97
2023-11-12T13:24:31.142Z,101227.16
2023-11-12T13:26:59.252Z,101230.72
2023-11-12T13:29:28.503Z,101232.00
2023-11-12T13:31:58.569Z,101230.66
2023-11-12T13:34:25.471Z,101236.50
2023-11-12T13:36:52.671Z,101240.09
2023-11-12T13:39:19.641Z,101246.47
2023-11-12T13:41:48.113Z,101247.97
2023-11-12T13:44:15.788Z,101249.69
2023-11-12T13:46:42.846Z,101247.41
2023-11-12T13:49:10.476Z,101244.41
2023-11-12T13:51:37.563Z,101251.22
2023-11-12T13:54:07.791Z,101258.06
2023-11-12T13:56:36.938Z,101271.25
2023-11-12T13:59:04.013Z,101259.69
2023-11-12T14:01:33.415Z,101265.28
2023-11-12T14:04:00.581Z,101267.94
2023-11-12T14:06:27.624Z,101260.59
2023-11-12T14:08:56.345Z,101257.06
2023-11-12T14:11:23.813Z,101259.25
2023-11-12T14:13:52.066Z,101266.56
2023-11-12T14:16:24.418Z,101263.88
2023-11-12T14:18:52.122Z,101258.41
2023-11-12T14:21:19.045Z,101271.66
2023-11-12T14:23:46.081Z,101267.13
2023-11-12T14:26:14.000Z,101269.38
2023-11-12T14:28:42.493Z,101266.16
2023-11-12T14:31:11.986Z,101270.69
2023-11-12T14:33:41.006Z,101276.84
2023-11-12T14:36:12.059Z,101281.59
2023-11-12T14:38:39.061Z,101277.91
2023-11-12T14:41:07.833Z,101288.28
2023-11-12T14:43:38.544Z,101291.63
2023-11-12T14:46:06.051Z,101290.19
2023-11-12T14:48:36.379Z,101295.19
2023-11-12T14:51:07.002Z,101305.44
2023-11-12T14:53:34.058Z,101303.28
2023-11-12T14:56:00.930Z,101303.31
2023-11-12T14:58:27.771Z,101306.53
2023-11-12T15:00:55.890Z,101317.06
2023-11-12T15:03:26.266Z,101312.47
2023-11-12T15:05:53.224Z,101309.50
2023-11-12T15:08:20.188Z,101303.25
2023-11-12T15:10:46.977Z,101312.00
2023-11-12T15:13:13.843Z,101303.28
2023-11-12T15:15:40.842Z,101315.53
2023-11-12T15:18:07.703Z,101307.50
2023-11-12T15:20:36.183Z,101295.69
2023-11-12T15:23:03.053Z,101314.09
2023-11-12T15:25:29.973Z,101327.34
2023-11-12T15:27:56.851Z,101332.09
2023-11-12T15:30:25.870Z,101343.50
2023-11-12T15:32:53.097Z,101353.50
2023-11-12T15:35:20.598Z,101358.44
2023-11-12T15:37:47.716Z,101361.34
2023-11-12T15:40:19.514Z,101363.81
2023-11-12T15:42:49.698Z,101374.75
2023-11-12T15:45:17.983Z,101386.75
2023-11-12T15:47:46.274Z,101397.34
2023-11-12T15:50:14.206Z,101414.53
2023-11-12T15:52:41.669Z,101429.06
2023-11-12T15:55:09.654Z,101432.13
2023-11-12T15:57:38.350Z,101428.41
2023-11-12T16:00:19.599Z,101437.09
2023-11-12T16:02:48.186Z,101448.50
2023-11-12T16:05:15.273Z,101446.81
2023-11-12T16:07:43.381Z,101450.16
2023-11-12T16:10:15.399Z,101446.66
2023-11-12T16:12:42.613Z,101440.03
2023-11-12T16:15:14.176Z,101433.84
2023-11-12T16:17:41.602Z,101421.00
2023-11-12T16:20:13.858Z,101428.81
2023-11-12T16:22:41.433Z,101439.78
2023-11-12T16:25:09.774Z,101450.56
2023-11-12T16:27:37.211Z,101451.00
2023-11-12T16:30:05.214Z,101442.28
2023-11-12T16:32:33.561Z,101444.34
2023-11-12T16:35:01.076Z,101431.53
2023-11-12T16:37:27.932Z,101442.28
2023-11-12T16:39:55.048Z,101447.88
2023-11-12T16:42:25.731Z,101445.41
2023-11-12T16:44:52.668Z,101452.25
2023-11-12T16:47:24.360Z,101443.31
2023-11-12T16:49:56.706Z,101453.22
2023-11-12T16:52:23.696Z,101466.44
2023-11-12T16:54:50.658Z,101480.31
2023-11-12T16:57:17.497Z,101484.22
2023-11-12T16:59:45.510Z,101490.03
2023-11-12T17:02:15.069Z,101500.59
2023-11-12T17:04:42.754Z,101498.72
2023-11-12T17:07:12.294Z,101495.22
2023-11-12T17:09:40.503Z,101492.91
2023-11-12T17:12:07.746Z,101491.06
2023-11-12T17:14:34.959Z,101487.56
2023-11-12T17:17:01.863Z,101486.91
2023-11-12T17:19:29.236Z,101490.84
2023-11-12T17:21:57.941Z,101496.84
2023-11-12T17:24:24.875Z,101502.22
2023-11-12T17:26:51.889Z,101512.16
2023-11-12T17:29:21.023Z,101520.41
2023-11-12T17:31:48.603Z,101510.06
2023-11-12T17:34:18.217Z,101510.06
2023-11-12T17:36:45.067Z,101517.94
2023-11-12T17:39:16.836Z,101530.53
2023-11-12T17:41:47.801Z,101537.56
2023-11-12T17:44:15.906Z,101534.66
2023-11-12T17:46:45.681Z,101525.53
2023-11-12T17:49:15.786Z,101543.09
2023-11-12T17:51:42.873Z,101554.84
2023-11-12T17:54:10.344Z,101543.28
2023-11-12T17:56:38.416Z,101534.22
2023-11-12T17:59:06.233Z,101543.53
2023-11-12T18:01:35.668Z,101556.16
2023-11-12T18:04:02.708Z,101558.41
2023-11-12T18:06:29.823Z,101578.69
2023-11-12T18:08:56.778Z,101582.81
2023-11-12T18:11:23.703Z,101583.66
2023-11-12T18:13:50.558Z,101583.47
2023-11-12T18:16:20.504Z,101593.56
2023-11-12T18:18:47.466Z,101600.41
2023-11-12T18:21:15.127Z,101613.84
2023-11-12T18:23:42.115Z,101625.03
2023-11-12T18:26:10.315Z,101624.00
2023-11-12T18:28:38.931Z,101630.19
2023-11-12T18:31:06.728Z,101630.84
2023-11-12T18:33:34.130Z,101627.09
2023-11-12T18:36:01.135Z,101628.78
2023-11-12T18:38:28.712Z,101632.47
2023-11-12T18:40:55.611Z,101634.78
2023-11-12T18:43:23.796Z,101643.88
2023-11-12T18:45:54.753Z,101659.00
2023-11-12T18:48:22.191Z,101660.00
2023-11-12T18:50:51.982Z,101681.31
2023-11-12T18:53:19.285Z,101698.47
2023-11-12T18:55:46.276Z,101718.75
2023-11-12T18:58:17.790Z,101716.88
2023-11-12T19:00:45.418Z,101716.88
2023-11-12T19:03:12.467Z,101710.69
2023-11-12T19:05:39.797Z,101697.44
2023-11-12T19:08:10.513Z,101695.97
2023-11-12T19:10:38.528Z,101689.13
2023-11-12T19:13:07.897Z,101695.13
2023-11-12T19:15:35.641Z,101677.78
2023-11-12T19:18:02.756Z,101675.66
2023-11-12T19:20:30.473Z,101675.09
2023-11-12T19:22:58.486Z,101678.59
2023-11-12T19:25:25.521Z,101694.63
2023-11-12T19:27:54.191Z,101699.81
2023-11-12T19:30:21.118Z,101704.38
2023-11-12T19:32:48.036Z,101721.13
2023-11-12T19:35:16.519Z,101728.81
2023-11-12T19:37:45.516Z,101722.16
2023-11-12T19:40:17.971Z,101715.56
2023-11-12T19:42:48.243Z,101704.41
2023-11-12T19:45:20.390Z,101719.06
2023-11-12T19:47:52.682Z,101715.94
2023-11-12T19:50:20.096Z,101710.38
2023-11-12T19:52:46.983Z,101719.22
2023-11-12T19:55:15.987Z,101724.00
2023-11-12T19:57:43.094Z,101728.72
2023-11-12T20:00:11.388Z,101724.75
2023-11-12T20:02:41.411Z,101722.06
2023-11-12T20:05:08.825Z,101727.03
2023-11-12T20:07:35.988Z,101711.72
2023-11-12T20:10:03.717Z,101724.09
2023-11-12T20:12:30.790Z,101726.56
2023-11-12T20:14:57.630Z,101724.13
2023-11-12T20:17:25.803Z,101720.41
2023-11-12T20:19:52.681Z,101716.06
2023-11-12T20:22:19.610Z,101724.13
2023-11-12T20:24:51.140Z,101731.34
2023-11-12T20:27:18.276Z,101728.84
2023-11-12T20:29:46.718Z,101721.81
2023-11-12T20:32:16.069Z,101725.56
2023-11-12T20:34:45.906Z,101724.69
2023-11-12T20:37:14.654Z,101729.25
2023-11-12T20:39:41.613Z,101728.59
2023-11-12T20:42:10.547Z,101721.59
2023-11-12T20:44:39.894Z,101728.00
2023-11-12T20:47:08.191Z,101731.50
2023-11-12T20:49:35.030Z,101729.00
2023-11-12T20:52:01.951Z,101729.00
2023-11-12T20:54:28.798Z,101723.63
2023-11-12T20:56:55.662Z,101723.00
2023-11-12T20:59:25.708Z,101725.69
2023-11-12T21:01:53.954Z,101727.53
2023-11-12T21:04:21.047Z,101739.34
2023-11-12T21:06:48.648Z,101741.81
2023-11-12T21:09:15.581Z,101755.44
2023-11-12T21:11:47.183Z,101750.63
2023-11-12T21:14:16.079Z,101756.41
2023-11-12T21:16:43.108Z,101753.91
2023-11-12T21:19:11.600Z,101757.63
2023-11-12T21:21:41.983Z,101766.91
2023-11-12T21:24:09.997Z,101759.44
2023-11-12T21:26:38.498Z,101762.94
2023-11-12T21:29:05.553Z,101761.94
2023-11-12T21:31:32.580Z,101774.09
2023-11-12T21:33:59.482Z,101766.91
2023-11-12T21:36:26.892Z,101775.28
2023-11-12T21:38:54.004Z,101763.50
2023-11-12T21:41:21.173Z,101767.16
2023-11-12T21:43:48.122Z,101762.78
2023-11-12T21:46:16.988Z,101761.78
2023-11-12T21:48:44.313Z,101764.25
2023-11-12T21:51:11.402Z,101759.53
2023-11-12T21:53:38.427Z,101759.34
2023-11-12T21:56:05.902Z,101766.75
2023-11-12T21:58:33.477Z,101756.69
2023-11-12T22:01:01.337Z,101764.88
2023-11-12T22:03:28.759Z,101763.00
2023-11-12T22:05:56.263Z,101760.22
2023-11-12T22:08:23.657Z,101761.91
2023-11-12T22:10:50.995Z,101759.59
2023-11-12T22:13:21.204Z,101758.31
2023-11-12T22:15:49.131Z,101761.00
2023-11-12T22:18:16.148Z,101761.75
2023-11-12T22:20:43.072Z,101758.06
2023-11-12T22:23:11.985Z,101763.41
2023-11-12T22:25:40.268Z,101773.88
2023-11-12T22:28:07.600Z,101768.13
2023-11-12T22:30:34.658Z,101769.78
2023-11-12T22:33:01.662Z,101774.34
2023-11-12T22:35:28.582Z,101773.88
2023-11-12T22:37:55.388Z,101777.56
2023-11-12T22:40:24.614Z,101771.38
2023-11-12T22:42:53.169Z,101790.38
2023-11-12T22:45:20.637Z,101785.50
2023-11-12T22:47:48.297Z,101786.78
2023-11-12T22:50:18.365Z,101790.19
2023-11-12T22:52:45.359Z,101778.38
2023-11-12T22:55:12.742Z,101775.31
2023-11-12T22:57:41.074Z,101772.38
2023-11-12T23:00:40.873Z,101773.28
2023-11-12T23:03:11.082Z,101767.81
2023-11-12T23:05:38.015Z,101763.66
2023-11-12T23:08:07.605Z,101763.94
2023-11-12T23:10:38.894Z,101769.22
2023-11-12T23:13:07.779Z,101760.16
2023-11-12T23:15:34.806Z,101757.41
2023-11-12T23:18:02.162Z,101754.13
2023-11-12T23:20:29.593Z,101756.63
2023-11-12T23:22:56.912Z,101757.00
2023-11-12T23:25:23.758Z,101760.16
2023-11-12T23:27:52.242Z,101753.31
2023-11-12T23:30:19.341Z,101754.53
2023-11-12T23:32:46.278Z,101745.94
2023-11-12T23:35:13.181Z,101749.72
2023-11-12T23:37:40.015Z,101752.69
2023-11-12T23:40:08.586Z,101759.78
2023-11-12T23:42:35.533Z,101761.94
2023-11-12T23:45:02.407Z,101760.91
2023-11-12T23:47:29.998Z,101757.41
2023-11-12T23:49:57.073Z,101762.47
2023-11-12T23:52:24.297Z,101753.22
2023-11-12T23:54:51.268Z,101745.75
2023-11-12T23:57:18.301Z,101734.75
2023-11-12T23:59:45.917Z,101725.97
